Historique des mesures à Cassis (13260), France
Quotidien Résumé Septembre 6, 2017 Unités:  Métrique    US   Métrique/US
« Précédent (Jour)
Suivant (Jour) »
Quotidien Hebdomadaire Mensuel Annuel Période au choix
  Maximum: Minimum: Moyenne:
Température: TemperatureC °C 20.3 °C 22.9 °C
Point de rosée: DewpointC °C 7.4 °C 14.1 °C
Humidité: Humidity % 34 % 56 %
Vitesse du vent: 0 km/h 0 km/h 20.8 km/h
Rafales: 0 km/h - -
Vent:- - SSW
Pression: PressurehPa hPa 1010.7 hPa -
Précipitations: 0.0 mm    
Historical Graphs
 
 
Mesures pour : Septembre 6, 2017
Heure Temperature Point de rosée Pression Vent Vitesse du vent Rafales Humidité Pluie (par heure) Conditions
TemperatureC °C DewpointC °C PressurehPa hPa Calm     Humidity % HourlyPrecipMM mm SoftwareType W/m2
00:11 22.3 °C 18.5 °C 1015.8 hPa Calm   9.8 km/h 79 % 0.0 mm open2300-1.11 W/m2
01:11 22.1 °C 18.3 °C 1015.5 hPa Calm     79 % 0.0 mm open2300-1.11 W/m2
02:11 21.4 °C 17.8 °C 1015.1 hPa Calm     80 % 0.0 mm open2300-1.11 W/m2
03:11 20.9 °C 17.3 °C 1014.4 hPa North 8 km/h 22.5 km/h 80 % 0.0 mm open2300-1.11 W/m2
04:11 20.6 °C 17.1 °C 1014.1 hPa Calm     80 % 0.0 mm open2300-1.11 W/m2
05:11 20.3 °C 16.6 °C 1014.1 hPa NNE 2.9 km/h 2.9 km/h 79 % 0.0 mm open2300-1.11 W/m2
06:11 21.1 °C 16.0 °C 1014.1 hPa NNE 6.4 km/h 23 km/h 73 % 0.0 mm open2300-1.11 W/m2
07:11 21.4 °C 15.4 °C 1014.1 hPa NNW 17.4 km/h 17.4 km/h 69 % 0.0 mm open2300-1.11 W/m2
08:11 21.8 °C 15.4 °C 1014.4 hPa North 15 km/h 39.4 km/h 67 % 0.0 mm open2300-1.11 W/m2
09:11 22.3 °C 15.4 °C 1014.8 hPa North 15.6 km/h 22.5 km/h 65 % 0.0 mm open2300-1.11 W/m2
10:11 23.3 °C 15.8 °C 1014.8 hPa NNW 21.6 km/h 21.6 km/h 63 % 0.0 mm open2300-1.11 W/m2
11:11 24.3 °C 15.8 °C 1014.4 hPa North 6.4 km/h 31.9 km/h 59 % 0.0 mm open2300-1.11 W/m2
12:11 25.4 °C 15.1 °C 1014.4 hPa NNW 16.3 km/h 27.7 km/h 53 % 0.0 mm open2300-1.11 W/m2
13:11 25.9 °C 15.3 °C 1014.1 hPa NW 51 km/h 51 km/h 52 % 0.0 mm open2300-1.11 W/m2
14:11 27.2 °C 15.2 °C 1013.4 hPa NW 59.5 km/h 59.5 km/h 48 % 0.0 mm open2300-1.11 W/m2
15:11 27.1 °C 14.4 °C 1013.1 hPa NNW 42.6 km/h 52.8 km/h 46 % 0.0 mm open2300-1.11 W/m2
16:11 27.6 °C 13.2 °C 1012.1 hPa NW 51.5 km/h 53.9 km/h 41 % 0.0 mm open2300-1.11 W/m2
17:11 27.1 °C 14.8 °C 1012.1 hPa NW 40.7 km/h 44.6 km/h 47 % 0.0 mm open2300-1.11 W/m2
18:11 25.9 °C 14.0 °C 1011.4 hPa West 17.9 km/h 44.1 km/h 49 % 0.0 mm open2300-1.11 W/m2
19:11 25.5 °C 14.3 °C 1011.1 hPa WNW 7.6 km/h 11.6 km/h 50 % 0.0 mm open2300-1.11 W/m2
20:11 25.9 °C 10.4 °C 1011.1 hPa NNW 31.4 km/h 31.4 km/h 38 % 0.0 mm open2300-1.11 W/m2
21:11 25.4 °C 9.6 °C 1011.4 hPa NNE 12.7 km/h 19.6 km/h 37 % 0.0 mm open2300-1.11 W/m2
22:11 24.4 °C 7.4 °C 1010.7 hPa NW 62.6 km/h 62.6 km/h 34 % 0.0 mm open2300-1.11 W/m2
23:11 23.3 °C 8.6 °C 1010.7 hPa NNW 33.6 km/h 48.6 km/h 39 % 0.0 mm open2300-1.11 W/m2
Observations météo à CASSIS
WU-History script by Weather Underground - 1 mb